Cannon Air Force Base
KCVS : now visible

Airfield :











YOU CAN JOIN US ON...

 
LOGIN :

Register | Disclaimer

   EN    FR    IT 

 









Legend :    VFR   Marginal VFR   IFR   Intensive IFR   Very Intensive IFR
Visi :
Ceiling :
>= 8 km
>= 3000ft
5 to 8 km
1000 to 3000 ft
1500m to 5 km
500 to 1000 ft
800 to 1500m
200 to 500 ft
< 800m
< 200 ft
Symbols :   Thunderstorms  Fog  Heavy snow  Heavy precipitations  Wind > 20 kt







- Airport Elevation : 4295 ft


KCVS - Cannon Air Force Base

CURRENT METAR :
  • 151058Z AUTO 14004KT 10SM CLR 17/13 A3024 RMK AO2 SLP186 T01660127 $

EXPIRED METARs :
  • 150958Z AUTO 15005KT 10SM CLR 17/13 A3024 RMK AO2 SLP189 T01730130 $
  • 150858Z AUTO 16005KT 10SM CLR 17/13 A3024 RMK AO2 SLP189 T01680127 57006 $

TAF TAF KCVS
Valid from the 15 at 10:00 until the 16 at 16:00 UTC


151000Z 1510/1616 19004KT 9999 SCT060 QNH3024INS
BECMG 1516/1517 18012G18KT 9999 SCT060 QNH3014INS
BECMG 1600/1601 16008KT 9999 VCSH BKN060 QNH3015INS
BECMG 1605/1606 16008KT 9999 NSW BKN060 QNH3015INS TX29/1521Z TN17/1512Z
No reported NOTAMs for that airfield.



MET'MAP, your aeronautical weather chart ! - Copyright ORBIFLY December 2007 - Disclaimer

ORBIFLY MET'MAP TEAM :

Programming & Development : Alexandra Zaïnal
Concept & Development : Baudouin d'Aumeries
Co-Development & Prog : Marc-Olivier Méhu
Technical & hardware support : Manuel Goepfert

Contact : metmap@orbifly.com




SOURCES & CREDITS :

   NOAA       Earth
Advisory